sensor_id;sensor_type;location;lat;lon;timestamp;temperature;humidity
7666;DHT22;3875;46.562;4.898;2022-12-29T00:02:19;10.10;90.80
7666;DHT22;3875;46.562;4.898;2022-12-29T00:04:46;10.10;90.70
7666;DHT22;3875;46.562;4.898;2022-12-29T00:07:11;10.10;90.60
7666;DHT22;3875;46.562;4.898;2022-12-29T00:09:37;10.20;90.60
7666;DHT22;3875;46.562;4.898;2022-12-29T00:12:04;10.20;90.60
7666;DHT22;3875;46.562;4.898;2022-12-29T00:14:30;10.20;90.50
7666;DHT22;3875;46.562;4.898;2022-12-29T00:17:14;10.20;90.40
7666;DHT22;3875;46.562;4.898;2022-12-29T00:19:40;10.20;90.50
7666;DHT22;3875;46.562;4.898;2022-12-29T00:22:25;10.20;90.50
7666;DHT22;3875;46.562;4.898;2022-12-29T00:25:11;10.20;90.40
7666;DHT22;3875;46.562;4.898;2022-12-29T00:27:56;10.20;90.50
7666;DHT22;3875;46.562;4.898;2022-12-29T00:30:41;10.20;90.50
7666;DHT22;3875;46.562;4.898;2022-12-29T00:33:29;10.20;90.40
7666;DHT22;3875;46.562;4.898;2022-12-29T00:36:32;10.20;90.50
7666;DHT22;3875;46.562;4.898;2022-12-29T00:39:07;10.20;90.40
7666;DHT22;3875;46.562;4.898;2022-12-29T00:41:55;10.20;90.40
7666;DHT22;3875;46.562;4.898;2022-12-29T00:44:51;10.20;90.50
7666;DHT22;3875;46.562;4.898;2022-12-29T00:47:17;10.30;90.40
7666;DHT22;3875;46.562;4.898;2022-12-29T00:49:43;10.30;90.50
7666;DHT22;3875;46.562;4.898;2022-12-29T00:52:11;10.30;90.60
7666;DHT22;3875;46.562;4.898;2022-12-29T00:54:39;10.30;90.60
7666;DHT22;3875;46.562;4.898;2022-12-29T00:57:07;10.30;90.60
7666;DHT22;3875;46.562;4.898;2022-12-29T00:59:37;10.30;90.80
7666;DHT22;3875;46.562;4.898;2022-12-29T01:02:03;10.30;90.80
7666;DHT22;3875;46.562;4.898;2022-12-29T01:04:29;10.30;90.90
7666;DHT22;3875;46.562;4.898;2022-12-29T01:06:55;10.30;90.90
7666;DHT22;3875;46.562;4.898;2022-12-29T01:09:21;10.30;91.10
7666;DHT22;3875;46.562;4.898;2022-12-29T01:12:07;10.30;91.10
7666;DHT22;3875;46.562;4.898;2022-12-29T01:14:34;10.30;91.10
7666;DHT22;3875;46.562;4.898;2022-12-29T01:17:00;10.30;91.10
7666;DHT22;3875;46.562;4.898;2022-12-29T01:19:26;10.30;91.20
7666;DHT22;3875;46.562;4.898;2022-12-29T01:21:52;10.30;91.30
7666;DHT22;3875;46.562;4.898;2022-12-29T01:24:20;10.30;91.30
7666;DHT22;3875;46.562;4.898;2022-12-29T01:26:46;10.40;91.30
7666;DHT22;3875;46.562;4.898;2022-12-29T01:29:13;10.40;91.20
7666;DHT22;3875;46.562;4.898;2022-12-29T01:31:39;10.40;91.30
7666;DHT22;3875;46.562;4.898;2022-12-29T01:34:05;10.40;91.10
7666;DHT22;3875;46.562;4.898;2022-12-29T01:36:31;10.40;91.10
7666;DHT22;3875;46.562;4.898;2022-12-29T01:39:00;10.40;91.10
7666;DHT22;3875;46.562;4.898;2022-12-29T01:41:27;10.40;91.20
7666;DHT22;3875;46.562;4.898;2022-12-29T01:43:55;10.40;91.10
7666;DHT22;3875;46.562;4.898;2022-12-29T01:46:42;10.50;91.10
7666;DHT22;3875;46.562;4.898;2022-12-29T01:49:15;10.40;91.20
7666;DHT22;3875;46.562;4.898;2022-12-29T01:51:53;10.40;91.30
7666;DHT22;3875;46.562;4.898;2022-12-29T01:54:43;10.40;91.30
7666;DHT22;3875;46.562;4.898;2022-12-29T01:57:17;10.40;91.30
7666;DHT22;3875;46.562;4.898;2022-12-29T02:00:10;10.40;91.40
7666;DHT22;3875;46.562;4.898;2022-12-29T02:02:37;10.40;91.50
7666;DHT22;3875;46.562;4.898;2022-12-29T02:05:14;10.30;91.70
7666;DHT22;3875;46.562;4.898;2022-12-29T02:07:42;10.30;91.70
7666;DHT22;3875;46.562;4.898;2022-12-29T02:10:09;10.30;91.80
7666;DHT22;3875;46.562;4.898;2022-12-29T02:12:35;10.30;91.90
7666;DHT22;3875;46.562;4.898;2022-12-29T02:15:02;10.30;91.90
7666;DHT22;3875;46.562;4.898;2022-12-29T02:23:13;10.30;92.00
7666;DHT22;3875;46.562;4.898;2022-12-29T02:31:31;10.30;92.00
7666;DHT22;3875;46.562;4.898;2022-12-29T02:37:07;10.30;91.90
7666;DHT22;3875;46.562;4.898;2022-12-29T02:39:52;10.30;91.90
7666;DHT22;3875;46.562;4.898;2022-12-29T02:42:46;10.30;91.90
7666;DHT22;3875;46.562;4.898;2022-12-29T02:45:16;10.30;91.90
7666;DHT22;3875;46.562;4.898;2022-12-29T02:47:52;10.30;92.00
7666;DHT22;3875;46.562;4.898;2022-12-29T02:50:47;10.30;91.90
7666;DHT22;3875;46.562;4.898;2022-12-29T02:53:18;10.30;92.00
7666;DHT22;3875;46.562;4.898;2022-12-29T02:56:07;10.20;92.00
7666;DHT22;3875;46.562;4.898;2022-12-29T02:58:33;10.20;92.00
7666;DHT22;3875;46.562;4.898;2022-12-29T03:04:00;10.20;91.90
7666;DHT22;3875;46.562;4.898;2022-12-29T03:23:43;10.00;92.50
7666;DHT22;3875;46.562;4.898;2022-12-29T03:26:15;9.90;92.60
7666;DHT22;3875;46.562;4.898;2022-12-29T03:28:50;9.90;92.70
7666;DHT22;3875;46.562;4.898;2022-12-29T03:31:18;10.00;92.70
7666;DHT22;3875;46.562;4.898;2022-12-29T03:33:46;10.00;92.60
7666;DHT22;3875;46.562;4.898;2022-12-29T03:36:21;10.00;92.70
7666;DHT22;3875;46.562;4.898;2022-12-29T03:39:02;10.10;92.60
7666;DHT22;3875;46.562;4.898;2022-12-29T03:41:31;10.10;92.60
7666;DHT22;3875;46.562;4.898;2022-12-29T03:43:58;10.10;92.70
7666;DHT22;3875;46.562;4.898;2022-12-29T03:46:24;10.20;92.60
7666;DHT22;3875;46.562;4.898;2022-12-29T03:48:49;10.20;92.60
7666;DHT22;3875;46.562;4.898;2022-12-29T03:51:15;10.20;92.60
7666;DHT22;3875;46.562;4.898;2022-12-29T03:53:41;10.20;92.60
7666;DHT22;3875;46.562;4.898;2022-12-29T03:56:06;10.20;92.70
7666;DHT22;3875;46.562;4.898;2022-12-29T03:58:32;10.30;92.60
7666;DHT22;3875;46.562;4.898;2022-12-29T04:00:58;10.30;92.60
7666;DHT22;3875;46.562;4.898;2022-12-29T04:03:23;10.30;92.60
7666;DHT22;3875;46.562;4.898;2022-12-29T04:05:49;10.40;92.50
7666;DHT22;3875;46.562;4.898;2022-12-29T04:08:15;10.40;92.40
7666;DHT22;3875;46.562;4.898;2022-12-29T04:10:40;10.40;92.30
7666;DHT22;3875;46.562;4.898;2022-12-29T04:13:06;10.40;92.20
7666;DHT22;3875;46.562;4.898;2022-12-29T04:15:32;10.40;92.20
7666;DHT22;3875;46.562;4.898;2022-12-29T04:17:57;10.40;92.20
7666;DHT22;3875;46.562;4.898;2022-12-29T04:20:23;10.50;92.20
7666;DHT22;3875;46.562;4.898;2022-12-29T04:23:07;10.50;92.10
7666;DHT22;3875;46.562;4.898;2022-12-29T04:25:33;10.50;92.10
7666;DHT22;3875;46.562;4.898;2022-12-29T04:27:59;10.50;92.10
7666;DHT22;3875;46.562;4.898;2022-12-29T04:30:25;10.50;92.10
7666;DHT22;3875;46.562;4.898;2022-12-29T04:32:51;10.40;92.10
7666;DHT22;3875;46.562;4.898;2022-12-29T04:35:16;10.40;92.10
7666;DHT22;3875;46.562;4.898;2022-12-29T04:37:42;10.40;92.10
7666;DHT22;3875;46.562;4.898;2022-12-29T04:40:08;10.40;92.30
7666;DHT22;3875;46.562;4.898;2022-12-29T04:42:34;10.40;92.30
7666;DHT22;3875;46.562;4.898;2022-12-29T04:45:00;10.30;92.40
7666;DHT22;3875;46.562;4.898;2022-12-29T04:47:25;10.20;92.40
7666;DHT22;3875;46.562;4.898;2022-12-29T04:49:51;10.20;92.50
7666;DHT22;3875;46.562;4.898;2022-12-29T04:52:17;10.20;92.50
7666;DHT22;3875;46.562;4.898;2022-12-29T04:54:43;10.20;92.80
7666;DHT22;3875;46.562;4.898;2022-12-29T04:57:08;10.10;92.80
7666;DHT22;3875;46.562;4.898;2022-12-29T04:59:34;10.10;92.90
7666;DHT22;3875;46.562;4.898;2022-12-29T05:01:59;10.10;93.00
7666;DHT22;3875;46.562;4.898;2022-12-29T05:04:25;10.10;93.10
7666;DHT22;3875;46.562;4.898;2022-12-29T05:06:51;10.10;93.10
7666;DHT22;3875;46.562;4.898;2022-12-29T05:09:16;10.20;93.10
7666;DHT22;3875;46.562;4.898;2022-12-29T05:11:42;10.20;93.00
7666;DHT22;3875;46.562;4.898;2022-12-29T05:14:08;10.20;93.00
7666;DHT22;3875;46.562;4.898;2022-12-29T05:16:33;10.20;92.90
7666;DHT22;3875;46.562;4.898;2022-12-29T05:18:59;10.20;93.00
7666;DHT22;3875;46.562;4.898;2022-12-29T05:21:25;10.20;93.00
7666;DHT22;3875;46.562;4.898;2022-12-29T05:23:51;10.20;93.00
7666;DHT22;3875;46.562;4.898;2022-12-29T05:26:16;10.30;92.90
7666;DHT22;3875;46.562;4.898;2022-12-29T05:28:42;10.30;92.80
7666;DHT22;3875;46.562;4.898;2022-12-29T05:31:08;10.30;92.80
7666;DHT22;3875;46.562;4.898;2022-12-29T05:33:33;10.40;92.70
7666;DHT22;3875;46.562;4.898;2022-12-29T05:36:09;10.40;92.70
7666;DHT22;3875;46.562;4.898;2022-12-29T05:38:35;10.40;92.60
7666;DHT22;3875;46.562;4.898;2022-12-29T05:41:01;10.50;92.60
7666;DHT22;3875;46.562;4.898;2022-12-29T05:43:26;10.50;92.60
7666;DHT22;3875;46.562;4.898;2022-12-29T05:45:52;10.50;92.60
7666;DHT22;3875;46.562;4.898;2022-12-29T05:48:19;10.60;92.60
7666;DHT22;3875;46.562;4.898;2022-12-29T05:50:48;10.60;92.50
7666;DHT22;3875;46.562;4.898;2022-12-29T05:53:14;10.60;92.60
7666;DHT22;3875;46.562;4.898;2022-12-29T05:55:40;10.60;92.50
7666;DHT22;3875;46.562;4.898;2022-12-29T05:58:06;10.60;92.60
7666;DHT22;3875;46.562;4.898;2022-12-29T06:00:32;10.60;92.60
7666;DHT22;3875;46.562;4.898;2022-12-29T06:02:57;10.60;92.70
7666;DHT22;3875;46.562;4.898;2022-12-29T06:05:23;10.60;92.70
7666;DHT22;3875;46.562;4.898;2022-12-29T06:07:49;10.60;92.80
7666;DHT22;3875;46.562;4.898;2022-12-29T06:10:14;10.60;92.90
7666;DHT22;3875;46.562;4.898;2022-12-29T06:12:40;10.60;92.90
7666;DHT22;3875;46.562;4.898;2022-12-29T06:15:06;10.60;92.90
7666;DHT22;3875;46.562;4.898;2022-12-29T06:17:32;10.70;92.90
7666;DHT22;3875;46.562;4.898;2022-12-29T06:19:57;10.70;93.00
7666;DHT22;3875;46.562;4.898;2022-12-29T06:22:23;10.70;93.00
7666;DHT22;3875;46.562;4.898;2022-12-29T06:24:49;10.70;93.00
7666;DHT22;3875;46.562;4.898;2022-12-29T06:27:15;10.70;93.10
7666;DHT22;3875;46.562;4.898;2022-12-29T06:29:41;10.70;93.10
7666;DHT22;3875;46.562;4.898;2022-12-29T06:32:08;10.70;93.10
7666;DHT22;3875;46.562;4.898;2022-12-29T06:34:34;10.80;93.10
7666;DHT22;3875;46.562;4.898;2022-12-29T06:37:00;10.80;93.10
7666;DHT22;3875;46.562;4.898;2022-12-29T06:39:26;10.80;93.10
7666;DHT22;3875;46.562;4.898;2022-12-29T06:41:53;10.80;93.00
7666;DHT22;3875;46.562;4.898;2022-12-29T06:44:20;10.80;93.10
7666;DHT22;3875;46.562;4.898;2022-12-29T06:46:46;10.90;93.00
7666;DHT22;3875;46.562;4.898;2022-12-29T06:49:11;10.90;93.00
7666;DHT22;3875;46.562;4.898;2022-12-29T06:51:37;10.90;93.00
7666;DHT22;3875;46.562;4.898;2022-12-29T06:54:03;10.90;93.00
7666;DHT22;3875;46.562;4.898;2022-12-29T06:56:28;10.90;93.00
7666;DHT22;3875;46.562;4.898;2022-12-29T06:58:54;10.90;93.10
7666;DHT22;3875;46.562;4.898;2022-12-29T07:01:20;10.90;93.10
7666;DHT22;3875;46.562;4.898;2022-12-29T07:03:45;10.80;93.20
7666;DHT22;3875;46.562;4.898;2022-12-29T07:06:11;10.80;93.30
7666;DHT22;3875;46.562;4.898;2022-12-29T07:08:37;10.80;93.30
7666;DHT22;3875;46.562;4.898;2022-12-29T07:11:04;10.80;93.20
7666;DHT22;3875;46.562;4.898;2022-12-29T07:13:30;10.80;93.20
7666;DHT22;3875;46.562;4.898;2022-12-29T07:15:55;10.80;93.20
7666;DHT22;3875;46.562;4.898;2022-12-29T07:18:21;10.80;93.30
7666;DHT22;3875;46.562;4.898;2022-12-29T07:20:47;10.80;93.30
7666;DHT22;3875;46.562;4.898;2022-12-29T07:23:13;10.80;93.30
7666;DHT22;3875;46.562;4.898;2022-12-29T07:25:38;10.80;93.30
7666;DHT22;3875;46.562;4.898;2022-12-29T07:28:06;10.80;93.30
7666;DHT22;3875;46.562;4.898;2022-12-29T07:30:31;10.80;93.30
7666;DHT22;3875;46.562;4.898;2022-12-29T07:32:57;10.90;93.30
7666;DHT22;3875;46.562;4.898;2022-12-29T07:35:23;10.90;93.20
7666;DHT22;3875;46.562;4.898;2022-12-29T07:37:48;10.90;93.20
7666;DHT22;3875;46.562;4.898;2022-12-29T07:40:14;10.90;93.50
7666;DHT22;3875;46.562;4.898;2022-12-29T07:42:40;10.90;93.60
7666;DHT22;3875;46.562;4.898;2022-12-29T07:45:06;10.90;93.80
7666;DHT22;3875;46.562;4.898;2022-12-29T07:47:32;10.90;94.00
7666;DHT22;3875;46.562;4.898;2022-12-29T07:49:57;10.90;94.00
7666;DHT22;3875;46.562;4.898;2022-12-29T07:52:23;11.00;94.10
7666;DHT22;3875;46.562;4.898;2022-12-29T07:54:49;10.90;94.20
7666;DHT22;3875;46.562;4.898;2022-12-29T07:57:14;10.90;94.20
7666;DHT22;3875;46.562;4.898;2022-12-29T07:59:40;11.00;94.30
7666;DHT22;3875;46.562;4.898;2022-12-29T08:02:06;10.90;94.50
7666;DHT22;3875;46.562;4.898;2022-12-29T08:04:31;10.90;94.70
7666;DHT22;3875;46.562;4.898;2022-12-29T08:06:57;10.90;94.70
7666;DHT22;3875;46.562;4.898;2022-12-29T08:09:23;10.90;94.80
7666;DHT22;3875;46.562;4.898;2022-12-29T08:11:48;10.90;94.80
7666;DHT22;3875;46.562;4.898;2022-12-29T08:14:14;10.90;94.90
7666;DHT22;3875;46.562;4.898;2022-12-29T08:16:40;10.90;95.00
7666;DHT22;3875;46.562;4.898;2022-12-29T08:19:05;10.90;95.00
7666;DHT22;3875;46.562;4.898;2022-12-29T08:21:31;10.90;95.10
7666;DHT22;3875;46.562;4.898;2022-12-29T08:23:57;10.90;95.10
7666;DHT22;3875;46.562;4.898;2022-12-29T08:26:24;11.00;95.00
7666;DHT22;3875;46.562;4.898;2022-12-29T08:28:53;11.00;95.00
7666;DHT22;3875;46.562;4.898;2022-12-29T08:31:18;11.00;95.00
7666;DHT22;3875;46.562;4.898;2022-12-29T08:33:44;11.00;95.00
7666;DHT22;3875;46.562;4.898;2022-12-29T08:36:10;11.00;95.00
7666;DHT22;3875;46.562;4.898;2022-12-29T08:38:35;11.00;95.00
7666;DHT22;3875;46.562;4.898;2022-12-29T08:41:01;11.00;94.90
7666;DHT22;3875;46.562;4.898;2022-12-29T08:43:28;11.00;95.00
7666;DHT22;3875;46.562;4.898;2022-12-29T08:45:53;11.00;95.00
7666;DHT22;3875;46.562;4.898;2022-12-29T08:48:19;11.00;95.00
7666;DHT22;3875;46.562;4.898;2022-12-29T08:50:48;11.00;95.00
7666;DHT22;3875;46.562;4.898;2022-12-29T08:53:14;11.10;95.00
7666;DHT22;3875;46.562;4.898;2022-12-29T08:55:40;11.10;95.00
7666;DHT22;3875;46.562;4.898;2022-12-29T08:58:06;11.10;95.00
7666;DHT22;3875;46.562;4.898;2022-12-29T09:00:32;11.10;94.90
7666;DHT22;3875;46.562;4.898;2022-12-29T09:02:57;11.10;94.90
7666;DHT22;3875;46.562;4.898;2022-12-29T09:05:23;11.10;95.00
7666;DHT22;3875;46.562;4.898;2022-12-29T09:07:49;11.10;94.90
7666;DHT22;3875;46.562;4.898;2022-12-29T09:10:14;11.20;94.90
7666;DHT22;3875;46.562;4.898;2022-12-29T09:12:40;11.20;94.90
7666;DHT22;3875;46.562;4.898;2022-12-29T09:15:06;11.20;94.80
7666;DHT22;3875;46.562;4.898;2022-12-29T09:17:33;11.30;94.70
7666;DHT22;3875;46.562;4.898;2022-12-29T09:20:13;11.20;94.60
7666;DHT22;3875;46.562;4.898;2022-12-29T09:22:39;11.20;94.60
7666;DHT22;3875;46.562;4.898;2022-12-29T09:25:05;11.20;94.60
7666;DHT22;3875;46.562;4.898;2022-12-29T09:27:31;11.20;94.70
7666;DHT22;3875;46.562;4.898;2022-12-29T09:29:57;11.30;94.70
7666;DHT22;3875;46.562;4.898;2022-12-29T09:32:23;11.30;94.70
7666;DHT22;3875;46.562;4.898;2022-12-29T09:34:48;11.30;94.80
7666;DHT22;3875;46.562;4.898;2022-12-29T09:37:14;11.30;95.00
7666;DHT22;3875;46.562;4.898;2022-12-29T09:39:40;11.30;95.20
7666;DHT22;3875;46.562;4.898;2022-12-29T09:42:23;11.40;95.30
7666;DHT22;3875;46.562;4.898;2022-12-29T09:48:15;11.40;95.20
7666;DHT22;3875;46.562;4.898;2022-12-29T09:50:48;11.50;95.30
7666;DHT22;3875;46.562;4.898;2022-12-29T09:53:28;11.50;95.20
7666;DHT22;3875;46.562;4.898;2022-12-29T09:55:59;11.50;95.00
7666;DHT22;3875;46.562;4.898;2022-12-29T09:58:42;11.50;95.00
7666;DHT22;3875;46.562;4.898;2022-12-29T10:01:25;11.50;94.80
7666;DHT22;3875;46.562;4.898;2022-12-29T10:03:55;11.50;94.80
7666;DHT22;3875;46.562;4.898;2022-12-29T10:11:58;11.50;94.40
7666;DHT22;3875;46.562;4.898;2022-12-29T10:17:25;11.60;94.40
7666;DHT22;3875;46.562;4.898;2022-12-29T10:25:56;11.80;94.20
7666;DHT22;3875;46.562;4.898;2022-12-29T10:28:30;11.80;94.00
7666;DHT22;3875;46.562;4.898;2022-12-29T10:30:59;11.90;94.00
7666;DHT22;3875;46.562;4.898;2022-12-29T10:33:35;12.00;93.90
7666;DHT22;3875;46.562;4.898;2022-12-29T10:36:34;12.00;93.70
7666;DHT22;3875;46.562;4.898;2022-12-29T10:39:26;12.10;93.70
7666;DHT22;3875;46.562;4.898;2022-12-29T10:42:09;12.10;93.50
7666;DHT22;3875;46.562;4.898;2022-12-29T10:44:37;12.10;93.40
7666;DHT22;3875;46.562;4.898;2022-12-29T10:47:06;12.10;93.50
7666;DHT22;3875;46.562;4.898;2022-12-29T10:49:36;12.10;93.40
7666;DHT22;3875;46.562;4.898;2022-12-29T10:52:03;12.20;93.30
7666;DHT22;3875;46.562;4.898;2022-12-29T10:54:32;12.10;92.70
7666;DHT22;3875;46.562;4.898;2022-12-29T10:57:21;12.10;92.70
7666;DHT22;3875;46.562;4.898;2022-12-29T10:59:49;12.20;92.70
7666;DHT22;3875;46.562;4.898;2022-12-29T11:02:51;12.10;92.40
7666;DHT22;3875;46.562;4.898;2022-12-29T11:05:37;12.20;92.40
7666;DHT22;3875;46.562;4.898;2022-12-29T11:08:11;12.20;92.20
7666;DHT22;3875;46.562;4.898;2022-12-29T11:10:39;12.20;92.10
7666;DHT22;3875;46.562;4.898;2022-12-29T11:15:43;12.20;91.90
7666;DHT22;3875;46.562;4.898;2022-12-29T11:18:32;12.20;91.90
7666;DHT22;3875;46.562;4.898;2022-12-29T11:21:00;12.20;91.50
7666;DHT22;3875;46.562;4.898;2022-12-29T11:23:36;12.30;91.70
7666;DHT22;3875;46.562;4.898;2022-12-29T11:28:39;12.30;91.80
7666;DHT22;3875;46.562;4.898;2022-12-29T11:31:07;12.40;91.80
7666;DHT22;3875;46.562;4.898;2022-12-29T11:33:34;12.40;91.70
7666;DHT22;3875;46.562;4.898;2022-12-29T11:36:16;12.50;91.50
7666;DHT22;3875;46.562;4.898;2022-12-29T11:38:48;12.50;91.40
7666;DHT22;3875;46.562;4.898;2022-12-29T11:41:24;12.50;91.40
7666;DHT22;3875;46.562;4.898;2022-12-29T11:43:51;12.50;91.30
7666;DHT22;3875;46.562;4.898;2022-12-29T11:46:20;12.50;91.50
7666;DHT22;3875;46.562;4.898;2022-12-29T11:48:48;12.50;91.00
7666;DHT22;3875;46.562;4.898;2022-12-29T11:51:25;12.50;90.90
7666;DHT22;3875;46.562;4.898;2022-12-29T11:53:59;12.50;91.00
7666;DHT22;3875;46.562;4.898;2022-12-29T11:56:42;12.40;91.20
7666;DHT22;3875;46.562;4.898;2022-12-29T12:01:53;12.40;91.80
7666;DHT22;3875;46.562;4.898;2022-12-29T12:04:22;12.40;92.00
7666;DHT22;3875;46.562;4.898;2022-12-29T12:12:29;12.50;92.00
7666;DHT22;3875;46.562;4.898;2022-12-29T12:14:57;12.50;92.10
7666;DHT22;3875;46.562;4.898;2022-12-29T12:17:40;12.50;92.00
7666;DHT22;3875;46.562;4.898;2022-12-29T12:20:32;12.50;91.90
7666;DHT22;3875;46.562;4.898;2022-12-29T12:28:28;12.50;91.90
7666;DHT22;3875;46.562;4.898;2022-12-29T12:30:58;12.50;91.80
7666;DHT22;3875;46.562;4.898;2022-12-29T12:33:26;12.60;91.80
7666;DHT22;3875;46.562;4.898;2022-12-29T12:38:55;12.60;91.70
7666;DHT22;3875;46.562;4.898;2022-12-29T12:49:59;12.70;91.40
7666;DHT22;3875;46.562;4.898;2022-12-29T12:55:41;12.70;91.40
7666;DHT22;3875;46.562;4.898;2022-12-29T13:01:10;12.70;91.40
7666;DHT22;3875;46.562;4.898;2022-12-29T13:04:00;12.70;91.50
7666;DHT22;3875;46.562;4.898;2022-12-29T13:07:08;12.80;91.50
7666;DHT22;3875;46.562;4.898;2022-12-29T13:15:53;12.60;91.60
7666;DHT22;3875;46.562;4.898;2022-12-29T13:21:34;12.50;91.90
7666;DHT22;3875;46.562;4.898;2022-12-29T13:26:50;12.40;92.20
7666;DHT22;3875;46.562;4.898;2022-12-29T13:37:15;12.30;93.70
7666;DHT22;3875;46.562;4.898;2022-12-29T13:39:54;12.20;93.90
7666;DHT22;3875;46.562;4.898;2022-12-29T13:42:21;12.30;94.00
7666;DHT22;3875;46.562;4.898;2022-12-29T13:50:55;12.20;94.30
7666;DHT22;3875;46.562;4.898;2022-12-29T13:53:37;12.20;94.60
7666;DHT22;3875;46.562;4.898;2022-12-29T13:59:52;12.30;94.60
7666;DHT22;3875;46.562;4.898;2022-12-29T14:07:44;12.20;94.90
7666;DHT22;3875;46.562;4.898;2022-12-29T14:10:45;12.30;95.00
7666;DHT22;3875;46.562;4.898;2022-12-29T14:13:15;12.30;95.00
7666;DHT22;3875;46.562;4.898;2022-12-29T14:15:43;12.20;95.30
7666;DHT22;3875;46.562;4.898;2022-12-29T14:18:22;12.20;95.40
7666;DHT22;3875;46.562;4.898;2022-12-29T14:23:42;12.10;95.60
7666;DHT22;3875;46.562;4.898;2022-12-29T14:28:54;12.10;95.80
7666;DHT22;3875;46.562;4.898;2022-12-29T14:36:39;12.10;96.00
7666;DHT22;3875;46.562;4.898;2022-12-29T14:42:20;12.00;96.20
7666;DHT22;3875;46.562;4.898;2022-12-29T14:50:24;12.00;96.30
7666;DHT22;3875;46.562;4.898;2022-12-29T14:52:56;12.00;96.30
7666;DHT22;3875;46.562;4.898;2022-12-29T14:58:05;12.00;96.40
7666;DHT22;3875;46.562;4.898;2022-12-29T15:00:35;12.00;96.40
7666;DHT22;3875;46.562;4.898;2022-12-29T15:03:10;12.00;96.40
7666;DHT22;3875;46.562;4.898;2022-12-29T15:06:04;12.00;96.40
7666;DHT22;3875;46.562;4.898;2022-12-29T15:08:48;12.00;96.40
7666;DHT22;3875;46.562;4.898;2022-12-29T15:11:24;12.00;96.50
7666;DHT22;3875;46.562;4.898;2022-12-29T15:13:53;11.90;96.50
7666;DHT22;3875;46.562;4.898;2022-12-29T15:16:33;11.90;96.60
7666;DHT22;3875;46.562;4.898;2022-12-29T15:18:59;11.90;96.60
7666;DHT22;3875;46.562;4.898;2022-12-29T15:23:53;11.90;96.70
7666;DHT22;3875;46.562;4.898;2022-12-29T15:26:21;11.80;96.70
7666;DHT22;3875;46.562;4.898;2022-12-29T15:28:52;11.80;96.80
7666;DHT22;3875;46.562;4.898;2022-12-29T15:31:23;11.80;96.80
7666;DHT22;3875;46.562;4.898;2022-12-29T15:33:54;11.80;96.90
7666;DHT22;3875;46.562;4.898;2022-12-29T15:36:25;11.80;96.90
7666;DHT22;3875;46.562;4.898;2022-12-29T15:38:52;11.80;97.00
7666;DHT22;3875;46.562;4.898;2022-12-29T15:41:25;11.80;97.00
7666;DHT22;3875;46.562;4.898;2022-12-29T15:44:08;11.80;97.00
7666;DHT22;3875;46.562;4.898;2022-12-29T15:46:37;11.80;97.00
7666;DHT22;3875;46.562;4.898;2022-12-29T15:49:13;11.70;97.00
7666;DHT22;3875;46.562;4.898;2022-12-29T15:51:39;11.70;97.00
7666;DHT22;3875;46.562;4.898;2022-12-29T15:54:06;11.70;97.00
7666;DHT22;3875;46.562;4.898;2022-12-29T15:56:41;11.60;97.00
7666;DHT22;3875;46.562;4.898;2022-12-29T15:59:32;11.60;97.00
7666;DHT22;3875;46.562;4.898;2022-12-29T16:02:00;11.60;96.90
7666;DHT22;3875;46.562;4.898;2022-12-29T16:04:29;11.50;97.00
7666;DHT22;3875;46.562;4.898;2022-12-29T16:07:02;11.50;96.90
7666;DHT22;3875;46.562;4.898;2022-12-29T16:09:41;11.50;96.90
7666;DHT22;3875;46.562;4.898;2022-12-29T16:12:16;11.50;96.90
7666;DHT22;3875;46.562;4.898;2022-12-29T16:14:46;11.50;96.90
7666;DHT22;3875;46.562;4.898;2022-12-29T16:17:14;11.50;96.70
7666;DHT22;3875;46.562;4.898;2022-12-29T16:19:43;11.50;96.60
7666;DHT22;3875;46.562;4.898;2022-12-29T16:22:19;11.50;96.20
7666;DHT22;3875;46.562;4.898;2022-12-29T16:24:45;11.50;95.90
7666;DHT22;3875;46.562;4.898;2022-12-29T16:27:21;11.50;95.10
7666;DHT22;3875;46.562;4.898;2022-12-29T16:29:53;11.50;95.10
7666;DHT22;3875;46.562;4.898;2022-12-29T16:32:27;11.50;94.90
7666;DHT22;3875;46.562;4.898;2022-12-29T16:35:17;11.50;94.60
7666;DHT22;3875;46.562;4.898;2022-12-29T16:37:44;11.50;94.30
7666;DHT22;3875;46.562;4.898;2022-12-29T16:40:25;11.40;94.20
7666;DHT22;3875;46.562;4.898;2022-12-29T16:43:04;11.50;94.30
7666;DHT22;3875;46.562;4.898;2022-12-29T16:48:21;11.40;93.90
7666;DHT22;3875;46.562;4.898;2022-12-29T16:50:47;11.40;93.90
7666;DHT22;3875;46.562;4.898;2022-12-29T16:53:26;11.40;93.70
7666;DHT22;3875;46.562;4.898;2022-12-29T16:55:54;11.40;93.60
7666;DHT22;3875;46.562;4.898;2022-12-29T16:58:26;11.30;93.40
7666;DHT22;3875;46.562;4.898;2022-12-29T17:00:55;11.30;93.40
7666;DHT22;3875;46.562;4.898;2022-12-29T17:03:22;11.30;93.40
7666;DHT22;3875;46.562;4.898;2022-12-29T17:05:48;11.30;93.10
7666;DHT22;3875;46.562;4.898;2022-12-29T17:08:19;11.30;93.00
7666;DHT22;3875;46.562;4.898;2022-12-29T17:10:53;11.30;93.00
7666;DHT22;3875;46.562;4.898;2022-12-29T17:13:38;11.20;92.80
7666;DHT22;3875;46.562;4.898;2022-12-29T17:16:06;11.20;92.60
7666;DHT22;3875;46.562;4.898;2022-12-29T17:18:34;11.20;92.60
7666;DHT22;3875;46.562;4.898;2022-12-29T17:21:00;11.20;92.60
7666;DHT22;3875;46.562;4.898;2022-12-29T17:23:26;11.20;92.10
7666;DHT22;3875;46.562;4.898;2022-12-29T17:25:53;11.20;92.20
7666;DHT22;3875;46.562;4.898;2022-12-29T17:28:23;11.20;92.30
7666;DHT22;3875;46.562;4.898;2022-12-29T17:30:51;11.20;92.10
7666;DHT22;3875;46.562;4.898;2022-12-29T17:33:19;11.20;92.10
7666;DHT22;3875;46.562;4.898;2022-12-29T17:35:45;11.20;91.90
7666;DHT22;3875;46.562;4.898;2022-12-29T17:40:40;11.10;91.80
7666;DHT22;3875;46.562;4.898;2022-12-29T17:43:08;11.10;91.80
7666;DHT22;3875;46.562;4.898;2022-12-29T17:45:38;11.10;92.00
7666;DHT22;3875;46.562;4.898;2022-12-29T17:48:11;11.10;92.00
7666;DHT22;3875;46.562;4.898;2022-12-29T17:50:37;11.10;92.10
7666;DHT22;3875;46.562;4.898;2022-12-29T17:53:04;11.10;92.20
7666;DHT22;3875;46.562;4.898;2022-12-29T17:55:31;11.00;92.40
7666;DHT22;3875;46.562;4.898;2022-12-29T17:57:57;11.00;92.20
7666;DHT22;3875;46.562;4.898;2022-12-29T18:00:25;11.00;92.40
7666;DHT22;3875;46.562;4.898;2022-12-29T18:02:55;10.90;92.50
7666;DHT22;3875;46.562;4.898;2022-12-29T18:05:25;10.90;92.60
7666;DHT22;3875;46.562;4.898;2022-12-29T18:07:53;10.90;92.70
7666;DHT22;3875;46.562;4.898;2022-12-29T18:10:21;10.90;92.70
7666;DHT22;3875;46.562;4.898;2022-12-29T18:12:49;10.90;92.70
7666;DHT22;3875;46.562;4.898;2022-12-29T18:15:30;10.90;92.70
7666;DHT22;3875;46.562;4.898;2022-12-29T18:18:15;10.90;92.70
7666;DHT22;3875;46.562;4.898;2022-12-29T18:20:42;10.90;92.70
7666;DHT22;3875;46.562;4.898;2022-12-29T18:23:23;10.90;92.70
7666;DHT22;3875;46.562;4.898;2022-12-29T18:25:51;10.90;92.70
7666;DHT22;3875;46.562;4.898;2022-12-29T18:28:18;10.80;92.80
7666;DHT22;3875;46.562;4.898;2022-12-29T18:30:44;10.80;92.90
7666;DHT22;3875;46.562;4.898;2022-12-29T18:33:19;10.80;93.00
7666;DHT22;3875;46.562;4.898;2022-12-29T18:35:52;10.80;93.10
7666;DHT22;3875;46.562;4.898;2022-12-29T18:38:19;10.80;93.10
7666;DHT22;3875;46.562;4.898;2022-12-29T18:40:45;10.70;93.20
7666;DHT22;3875;46.562;4.898;2022-12-29T18:43:13;10.70;93.40
7666;DHT22;3875;46.562;4.898;2022-12-29T18:45:39;10.70;93.50
7666;DHT22;3875;46.562;4.898;2022-12-29T18:48:05;10.70;93.50
7666;DHT22;3875;46.562;4.898;2022-12-29T18:50:30;10.70;93.50
7666;DHT22;3875;46.562;4.898;2022-12-29T18:52:56;10.60;93.60
7666;DHT22;3875;46.562;4.898;2022-12-29T18:55:24;10.60;93.90
7666;DHT22;3875;46.562;4.898;2022-12-29T18:57:51;10.50;94.10